Time;durP1;ratioP1;P1;durP2;ratioP2;P2;SDS_P1;SDS_P2;PMS_P1;PMS_P2;Temp;Humidity;BMP_temperature;BMP_pressure;BME280_temperature;BME280_humidity;BME280_pressure;Samples;Min_cycle;Max_cycle;Signal;HPM_P1;HPM_P2
2021/12/04 00:01:50;;;;;;;3.10;1.60;;;;;;;-1.56;100.00;93683.91;5032442;28;20203;-73
2021/12/04 00:04:32;;;;;;;2.27;1.50;;;;;;;-1.26;100.00;93694.44;5027872;28;20333;-73
2021/12/04 00:06:58;;;;;;;2.80;1.90;;;;;;;-1.41;100.00;93674.47;5024678;28;20607;-73
2021/12/04 00:09:24;;;;;;;2.57;2.00;;;;;;;-1.39;100.00;93664.84;5011771;28;20257;-73
2021/12/04 00:12:01;;;;;;;2.37;1.67;;;;;;;-1.27;100.00;93658.13;5008191;28;20748;-72
2021/12/04 00:14:31;;;;;;;5.70;1.27;;;;;;;-1.39;100.00;93651.47;5011421;28;20230;-73
2021/12/04 00:16:57;;;;;;;1.20;1.10;;;;;;;-1.39;100.00;93635.41;4993823;28;20218;-73
2021/12/04 00:19:24;;;;;;;2.80;2.00;;;;;;;-1.26;100.00;93641.63;5004712;28;20198;-72
2021/12/04 00:21:50;;;;;;;1.40;1.23;;;;;;;-1.27;100.00;93639.38;5028868;28;20394;-73
2021/12/04 00:24:16;;;;;;;2.30;1.40;;;;;;;-1.40;100.00;93628.53;5012071;28;20237;-73
2021/12/04 00:26:42;;;;;;;2.63;1.50;;;;;;;-1.38;100.00;93626.22;5033670;28;20187;-73
2021/12/04 00:29:07;;;;;;;2.73;1.10;;;;;;;-1.36;100.00;93615.09;5016025;28;20213;-73
2021/12/04 00:31:34;;;;;;;1.60;1.27;;;;;;;-1.41;100.00;93608.28;5035728;28;20599;-73
2021/12/04 00:34:01;;;;;;;2.10;1.53;;;;;;;-1.39;100.00;93613.22;5018893;28;20318;-73
2021/12/04 00:49:49;;;;;;;1.53;1.30;;;;;;;-1.34;100.00;93591.34;5022600;28;20201;-73
2021/12/04 00:52:16;;;;;;;1.90;1.50;;;;;;;-1.24;100.00;93596.47;5031545;28;20223;-72
2021/12/04 00:54:43;;;;;;;1.20;1.10;;;;;;;-1.08;100.00;93595.75;5029763;28;20199;-72
2021/12/04 00:57:09;;;;;;;2.00;1.33;;;;;;;-0.89;100.00;93600.31;5023959;28;20194;-73
2021/12/04 00:59:34;;;;;;;1.30;1.10;;;;;;;-0.96;100.00;93613.09;5023649;28;20278;-74
2021/12/04 01:02:01;;;;;;;1.07;0.97;;;;;;;-1.11;100.00;93604.63;5031005;28;20266;-73
2021/12/04 01:04:27;;;;;;;1.53;1.20;;;;;;;-1.32;100.00;93618.44;5025041;28;20210;-70
2021/12/04 01:06:53;;;;;;;1.33;1.23;;;;;;;-1.29;100.00;93612.28;5014554;28;20195;-72
2021/12/04 01:09:21;;;;;;;2.70;1.10;;;;;;;-1.59;100.00;93621.25;5014152;28;20222;-73
2021/12/04 01:11:48;;;;;;;1.30;1.20;;;;;;;-1.47;100.00;93614.53;5013679;28;20218;-72
2021/12/04 01:14:16;;;;;;;1.40;1.20;;;;;;;-1.21;100.00;93605.59;5017739;28;20277;-72
2021/12/04 01:16:42;;;;;;;1.67;0.93;;;;;;;-0.97;100.00;93595.53;5027134;28;20190;-72
2021/12/04 01:19:09;;;;;;;2.37;1.60;;;;;;;-0.95;100.00;93599.28;5013356;28;20646;-73
2021/12/04 01:21:35;;;;;;;1.57;1.03;;;;;;;-0.99;100.00;93584.47;5028415;28;20211;-73
2021/12/04 01:24:01;;;;;;;2.10;1.40;;;;;;;-0.84;100.00;93572.28;5024141;28;20238;-73
2021/12/04 01:26:27;;;;;;;2.00;1.40;;;;;;;-0.92;100.00;93573.59;5021562;28;20573;-73
2021/12/04 01:28:52;;;;;;;1.80;1.30;;;;;;;-0.69;100.00;93560.06;5008166;28;20191;-72
2021/12/04 01:31:19;;;;;;;1.30;1.20;;;;;;;-0.64;100.00;93549.59;5027959;28;20665;-72
2021/12/04 01:33:45;;;;;;;1.90;1.40;;;;;;;-0.81;100.00;93521.28;5031975;28;20277;-72
2021/12/04 01:36:11;;;;;;;1.63;1.20;;;;;;;-0.94;100.00;93504.38;5012797;28;20278;-72
2021/12/04 01:38:36;;;;;;;2.93;1.83;;;;;;;-0.92;100.00;93528.06;5031159;28;20263;-72
2021/12/04 01:41:03;;;;;;;2.43;1.47;;;;;;;-0.99;100.00;93523.63;5023528;28;20543;-72
2021/12/04 01:43:29;;;;;;;2.70;1.63;;;;;;;-0.81;100.00;93515.91;5014872;28;20218;-72
2021/12/04 01:45:56;;;;;;;1.83;1.40;;;;;;;-0.74;100.00;93504.28;5022464;28;20523;-72
2021/12/04 01:48:22;;;;;;;2.40;1.57;;;;;;;-0.82;100.00;93501.03;4994600;28;20184;-72
2021/12/04 01:50:48;;;;;;;2.07;1.70;;;;;;;-0.94;100.00;93487.53;5029947;28;20281;-72
2021/12/04 01:53:13;;;;;;;2.10;1.60;;;;;;;-0.66;100.00;93509.06;5027544;28;20645;-72
2021/12/04 01:55:39;;;;;;;2.70;1.50;;;;;;;-0.56;100.00;93480.50;5023430;28;20274;-71
2021/12/04 01:58:05;;;;;;;1.90;1.60;;;;;;;-0.67;100.00;93488.78;5030510;28;20547;-72
2021/12/04 02:00:34;;;;;;;2.00;1.37;;;;;;;-0.52;100.00;93489.94;5030464;28;20195;-73
2021/12/04 02:03:03;;;;;;;3.07;1.23;;;;;;;-0.53;100.00;93509.91;5027855;28;20214;-72
2021/12/04 02:05:29;;;;;;;1.53;1.20;;;;;;;-0.56;100.00;93513.41;5020129;28;20191;-72
2021/12/04 02:07:55;;;;;;;1.37;1.27;;;;;;;-0.54;100.00;93513.75;5012270;28;20249;-72
2021/12/04 02:10:20;;;;;;;2.40;1.70;;;;;;;-0.59;100.00;93516.94;5030554;28;20203;-72
2021/12/04 02:12:48;;;;;;;2.93;1.60;;;;;;;-0.44;100.00;93520.03;4996723;28;20206;-72
2021/12/04 02:15:15;;;;;;;1.90;1.50;;;;;;;-0.58;100.00;93518.44;5026799;28;20200;-72
2021/12/04 02:17:41;;;;;;;3.40;1.73;;;;;;;-0.65;100.00;93512.50;5024786;28;20274;-71
2021/12/04 02:20:14;;;;;;;1.50;1.30;;;;;;;-0.64;100.00;93508.63;5030207;28;20191;-71
2021/12/04 02:22:40;;;;;;;2.23;1.40;;;;;;;-0.62;100.00;93519.69;4993020;28;20690;-72
2021/12/04 02:25:08;;;;;;;1.67;1.33;;;;;;;-0.44;100.00;93517.34;4999031;28;20202;-72
2021/12/04 02:27:35;;;;;;;1.33;1.20;;;;;;;-0.67;100.00;93502.19;5013107;28;20625;-73
2021/12/04 02:30:03;;;;;;;1.93;1.27;;;;;;;-0.54;100.00;93473.53;5026936;28;20729;-72
2021/12/04 02:32:30;;;;;;;1.50;1.30;;;;;;;-0.40;100.00;93475.09;5010336;28;20598;-73
2021/12/04 02:34:56;;;;;;;1.40;1.20;;;;;;;-0.35;100.00;93455.81;5009935;28;20544;-72
2021/12/04 02:37:22;;;;;;;1.00;0.97;;;;;;;-0.47;100.00;93459.19;5016611;28;20270;-72
2021/12/04 02:39:56;;;;;;;1.30;1.17;;;;;;;-0.53;100.00;93452.84;5030466;28;20255;-72
2021/12/04 02:42:23;;;;;;;2.03;1.00;;;;;;;-0.34;100.00;93468.78;5039000;28;20213;-71
2021/12/04 02:44:49;;;;;;;1.57;1.07;;;;;;;-0.29;100.00;93460.22;5041821;28;20194;-71
2021/12/04 02:47:16;;;;;;;1.47;1.20;;;;;;;-0.40;100.00;93493.88;5032408;28;20981;-72
2021/12/04 02:49:42;;;;;;;1.30;0.97;;;;;;;-0.60;100.00;93482.50;5032041;28;20194;-72
2021/12/04 02:52:09;;;;;;;1.27;1.10;;;;;;;-0.66;100.00;93473.47;5037039;28;20300;-72
2021/12/04 02:54:36;;;;;;;1.90;1.10;;;;;;;-0.63;100.00;93470.69;5014890;28;20768;-72
2021/12/04 02:57:03;;;;;;;1.13;1.03;;;;;;;-0.37;100.00;93448.19;5035733;28;20198;-73
2021/12/04 02:59:29;;;;;;;2.60;1.20;;;;;;;-0.34;100.00;93439.28;5008549;28;20212;-72
2021/12/04 03:01:56;;;;;;;1.20;1.10;;;;;;;-0.28;100.00;93434.19;5024149;28;20253;-72
2021/12/04 03:04:24;;;;;;;2.77;1.30;;;;;;;-0.43;100.00;93425.75;5033960;28;20187;-72
2021/12/04 03:06:50;;;;;;;1.90;1.20;;;;;;;-0.38;100.00;93445.94;5033900;28;20256;-73
2021/12/04 03:09:16;;;;;;;1.20;1.07;;;;;;;-0.27;100.00;93447.16;5021633;28;20767;-72
2021/12/04 03:11:42;;;;;;;1.00;0.80;;;;;;;-0.29;100.00;93444.13;5041782;28;20224;-71
2021/12/04 03:14:08;;;;;;;1.73;0.77;;;;;;;-0.29;100.00;93440.72;5042651;28;20278;-72
2021/12/04 03:16:35;;;;;;;2.07;0.87;;;;;;;-0.24;100.00;93442.88;5033598;28;20199;-72
2021/12/04 03:19:03;;;;;;;4.27;1.33;;;;;;;-0.29;100.00;93432.69;5033861;28;20214;-72
2021/12/04 03:21:31;;;;;;;1.23;1.13;;;;;;;-0.25;100.00;93425.28;5038385;28;20203;-72
2021/12/04 03:24:00;;;;;;;1.07;0.97;;;;;;;-0.05;100.00;93425.88;5036684;28;20265;-72
2021/12/04 03:26:26;;;;;;;1.73;1.10;;;;;;;0.01;100.00;93421.50;5028097;28;20214;-72
2021/12/04 03:28:54;;;;;;;1.40;1.20;;;;;;;-0.03;100.00;93410.09;5027006;28;20726;-72
2021/12/04 03:42:05;;;;;;;1.80;0.90;;;;;;;-0.29;100.00;93387.81;5030429;28;20206;-72
2021/12/04 03:44:31;;;;;;;3.60;1.00;;;;;;;-0.39;100.00;93370.09;5013800;28;20194;-71
2021/12/04 03:46:58;;;;;;;1.53;1.10;;;;;;;-0.38;100.00;93363.56;5012631;28;20199;-72
2021/12/04 03:49:24;;;;;;;1.63;0.90;;;;;;;-0.25;100.00;93363.59;5005253;28;20206;-72
2021/12/04 03:51:50;;;;;;;2.13;0.90;;;;;;;-0.22;100.00;93374.22;5013437;28;20223;-72
2021/12/04 03:54:15;;;;;;;0.67;0.60;;;;;;;-0.25;100.00;93353.63;4995713;28;20202;-71
2021/12/04 03:56:41;;;;;;;1.57;1.03;;;;;;;-0.31;100.00;93349.22;4995678;28;20273;-72
2021/12/04 03:59:07;;;;;;;1.07;0.80;;;;;;;-0.41;100.00;93350.25;4998861;28;20268;-72
2021/12/04 04:01:33;;;;;;;1.27;0.63;;;;;;;-0.66;100.00;93339.47;5014353;28;20235;-72
2021/12/04 04:03:59;;;;;;;1.40;0.73;;;;;;;-0.86;100.00;93338.81;5014547;28;20641;-72
2021/12/04 04:06:24;;;;;;;1.53;1.10;;;;;;;-0.83;100.00;93341.41;5032439;28;20282;-72
2021/12/04 04:08:50;;;;;;;1.37;1.00;;;;;;;-0.77;100.00;93326.34;5029138;28;20226;-72
2021/12/04 04:11:16;;;;;;;1.50;1.07;;;;;;;-0.73;100.00;93331.59;5022635;28;20215;-72
2021/12/04 04:13:44;;;;;;;1.47;1.00;;;;;;;-0.74;100.00;93330.09;5012685;28;20275;-72
2021/12/04 04:16:10;;;;;;;4.83;0.90;;;;;;;-0.71;100.00;93329.25;5016769;28;20266;-72
2021/12/04 04:18:36;;;;;;;0.80;0.80;;;;;;;-0.45;100.00;93336.19;5026663;28;20199;-72
2021/12/04 04:21:02;;;;;;;1.63;0.70;;;;;;;-0.60;100.00;93335.84;5032623;28;20187;-72
2021/12/04 04:23:28;;;;;;;0.80;0.80;;;;;;;-0.71;100.00;93326.56;5032509;28;20289;-72
2021/12/04 04:25:54;;;;;;;1.33;0.63;;;;;;;-0.91;100.00;93320.59;5015073;28;20227;-72
2021/12/04 04:28:20;;;;;;;1.10;0.70;;;;;;;-0.81;100.00;93325.66;5032381;28;20190;-72
2021/12/04 04:30:46;;;;;;;1.00;0.90;;;;;;;-0.79;100.00;93309.94;5028810;28;20226;-72
2021/12/04 04:33:14;;;;;;;1.20;0.73;;;;;;;-0.73;100.00;93302.84;4994514;28;20584;-72
2021/12/04 04:35:45;;;;;;;1.00;0.67;;;;;;;-0.70;100.00;93303.94;5024444;28;20195;-72
2021/12/04 05:01:15;;;;;;;1.00;0.83;;;;;;;-0.03;100.00;93278.63;5030252;28;20191;-72
2021/12/04 05:11:21;;;;;;;1.43;0.80;;;;;;;0.09;100.00;93272.53;4978470;28;20219;-72
2021/12/04 05:13:47;;;;;;;0.70;0.70;;;;;;;0.11;100.00;93256.00;5030889;28;20578;-72
2021/12/04 05:16:17;;;;;;;0.50;0.50;;;;;;;0.14;100.00;93247.84;5031393;28;20266;-72
2021/12/04 05:18:57;;;;;;;0.77;0.70;;;;;;;0.09;100.00;93269.84;5024289;28;20302;-72
2021/12/04 05:21:22;;;;;;;2.90;0.87;;;;;;;0.33;100.00;93268.31;5026859;28;20218;-72
2021/12/04 05:23:52;;;;;;;0.70;0.70;;;;;;;0.20;100.00;93248.03;5029020;28;20221;-73
2021/12/04 05:26:25;;;;;;;0.60;0.60;;;;;;;0.22;100.00;93254.47;5030429;28;20221;-72
2021/12/04 05:28:52;;;;;;;1.37;0.70;;;;;;;0.19;100.00;93249.97;5022638;28;20214;-72
2021/12/04 05:31:20;;;;;;;0.70;0.60;;;;;;;0.28;100.00;93242.03;5010853;28;20223;-72
2021/12/04 05:33:47;;;;;;;0.87;0.70;;;;;;;0.34;100.00;93247.59;5012261;28;20199;-72
2021/12/04 05:36:13;;;;;;;0.60;0.60;;;;;;;0.45;100.00;93235.34;5025495;28;20195;-72
2021/12/04 05:38:39;;;;;;;1.43;0.90;;;;;;;0.47;100.00;93221.47;5004346;28;20195;-72
2021/12/04 05:41:05;;;;;;;0.60;0.60;;;;;;;0.53;100.00;93225.84;5016875;28;20566;-72
2021/12/04 05:43:31;;;;;;;1.20;0.50;;;;;;;0.47;100.00;93224.91;5015737;28;20264;-72
2021/12/04 05:46:11;;;;;;;1.07;0.60;;;;;;;0.41;100.00;93218.59;5030707;28;21026;-72
2021/12/04 05:53:56;;;;;;;1.10;0.83;;;;;;;0.76;100.00;93227.41;5017126;28;20278;-72
2021/12/04 05:56:22;;;;;;;1.97;0.90;;;;;;;0.97;100.00;93219.38;5031231;28;20198;-73
2021/12/04 05:58:49;;;;;;;1.67;0.90;;;;;;;0.88;100.00;93211.22;5030956;28;20195;-73
2021/12/04 06:01:16;;;;;;;0.97;0.90;;;;;;;0.89;100.00;93210.06;5029118;28;20202;-71
2021/12/04 06:03:42;;;;;;;1.27;1.00;;;;;;;0.97;100.00;93207.84;5013197;28;20187;-71
2021/12/04 06:06:08;;;;;;;1.07;0.83;;;;;;;0.96;100.00;93214.44;5031077;28;20197;-72
2021/12/04 06:08:34;;;;;;;1.13;0.93;;;;;;;0.86;100.00;93194.06;5034728;28;20269;-71
2021/12/04 06:11:00;;;;;;;1.00;0.80;;;;;;;0.82;100.00;93206.84;5020712;28;20223;-72
2021/12/04 06:13:27;;;;;;;1.50;0.90;;;;;;;0.75;100.00;93193.66;5042633;28;20230;-73
2021/12/04 06:15:53;;;;;;;1.17;1.07;;;;;;;0.83;100.00;93195.66;5025407;28;20202;-72
2021/12/04 06:18:21;;;;;;;1.10;1.00;;;;;;;0.91;100.00;93196.94;5043122;28;20227;-72
2021/12/04 06:23:32;;;;;;;1.40;1.10;;;;;;;0.87;100.00;93190.16;5037197;28;20219;-73
2021/12/04 06:25:59;;;;;;;2.33;1.13;;;;;;;0.91;100.00;93180.81;5047160;28;20246;-73
2021/12/04 06:28:25;;;;;;;2.00;1.23;;;;;;;0.97;100.00;93194.41;5038434;28;20202;-73
2021/12/04 06:30:54;;;;;;;1.83;1.17;;;;;;;0.91;100.00;93188.88;5017747;28;20216;-73
2021/12/04 06:33:19;;;;;;;2.23;1.10;;;;;;;0.90;100.00;93179.31;5010176;28;20224;-73
2021/12/04 06:35:46;;;;;;;2.20;1.10;;;;;;;0.85;100.00;93192.53;5019239;28;20190;-72
2021/12/04 06:38:15;;;;;;;2.10;0.97;;;;;;;0.88;100.00;93187.03;5012651;28;20183;-73
2021/12/04 06:40:41;;;;;;;1.80;1.00;;;;;;;0.95;100.00;93181.44;5013956;28;20196;-73
2021/12/04 06:43:07;;;;;;;1.17;1.07;;;;;;;1.04;100.00;93172.69;5015235;28;20202;-72
2021/12/04 06:45:36;;;;;;;2.50;1.33;;;;;;;1.18;100.00;93175.63;5012736;28;20202;-72
2021/12/04 06:48:14;;;;;;;1.53;1.13;;;;;;;1.08;100.00;93174.06;5024368;28;20195;-72
2021/12/04 06:50:49;;;;;;;4.00;1.30;;;;;;;1.09;100.00;93177.47;5021987;28;20195;-72
2021/12/04 06:53:27;;;;;;;1.10;1.00;;;;;;;1.06;100.00;93175.69;5029030;28;20218;-72
2021/12/04 06:55:55;;;;;;;2.13;1.30;;;;;;;1.16;100.00;93163.78;5010615;28;20215;-73
2021/12/04 06:58:22;;;;;;;1.30;1.20;;;;;;;1.06;100.00;93179.13;5011257;28;20222;-73
2021/12/04 07:00:49;;;;;;;1.50;1.37;;;;;;;1.19;100.00;93169.03;5012307;28;20183;-73
2021/12/04 07:03:15;;;;;;;1.27;1.07;;;;;;;1.30;100.00;93175.97;5028659;28;20224;-73
2021/12/04 07:05:40;;;;;;;1.50;1.23;;;;;;;1.35;100.00;93170.78;5018618;28;20196;-72
2021/12/04 07:08:06;;;;;;;1.53;1.17;;;;;;;1.01;100.00;93178.94;4993211;28;20193;-72
2021/12/04 07:10:33;;;;;;;1.77;1.17;;;;;;;1.11;100.00;93177.81;4995507;28;20190;-73
2021/12/04 07:13:00;;;;;;;3.47;1.47;;;;;;;1.23;100.00;93174.28;5011207;28;20788;-73
2021/12/04 07:15:29;;;;;;;2.47;1.43;;;;;;;1.22;100.00;93167.44;5024319;28;20638;-72
2021/12/04 07:17:54;;;;;;;1.93;1.20;;;;;;;1.26;100.00;93153.84;5028925;28;20649;-73
2021/12/04 07:20:20;;;;;;;1.27;1.17;;;;;;;1.32;100.00;93155.53;5011979;28;20198;-72
2021/12/04 07:22:45;;;;;;;2.63;1.70;;;;;;;1.36;100.00;93147.34;5005686;28;20226;-72
2021/12/04 07:25:11;;;;;;;2.23;1.47;;;;;;;1.21;100.00;93147.09;5029476;28;20250;-73
2021/12/04 07:27:37;;;;;;;3.33;1.47;;;;;;;1.22;100.00;93137.84;5026412;28;20183;-73
2021/12/04 07:30:06;;;;;;;1.13;1.03;;;;;;;1.31;100.00;93134.47;5026406;28;20219;-72
2021/12/04 07:32:33;;;;;;;1.40;1.30;;;;;;;1.33;100.00;93130.13;5026060;28;20227;-73
2021/12/04 07:34:59;;;;;;;2.93;1.20;;;;;;;1.35;100.00;93122.38;5009395;28;20632;-73
2021/12/04 07:37:25;;;;;;;1.67;1.53;;;;;;;1.40;100.00;93126.41;4994848;28;20187;-73
2021/12/04 07:39:51;;;;;;;2.53;2.00;;;;;;;1.46;100.00;93136.16;5031102;28;20692;-73
2021/12/04 07:42:17;;;;;;;1.50;1.40;;;;;;;1.41;100.00;93125.97;5013573;28;20196;-73
2021/12/04 07:44:43;;;;;;;1.90;1.33;;;;;;;1.31;100.00;93129.81;5016107;28;20195;-72
2021/12/04 07:47:09;;;;;;;2.57;1.30;;;;;;;1.36;100.00;93134.63;5032531;28;20556;-72
2021/12/04 07:49:37;;;;;;;1.37;1.27;;;;;;;1.48;100.00;93130.38;5030029;28;20196;-73
2021/12/04 07:52:05;;;;;;;2.33;1.60;;;;;;;1.43;100.00;93134.34;5028319;28;20255;-73
2021/12/04 07:54:31;;;;;;;3.77;1.80;;;;;;;1.48;100.00;93141.84;5015453;28;20198;-73
2021/12/04 07:56:57;;;;;;;1.43;1.33;;;;;;;1.56;100.00;93143.06;5021084;28;20285;-73
2021/12/04 07:59:24;;;;;;;1.63;1.50;;;;;;;1.47;100.00;93140.38;5035154;28;20341;-72
2021/12/04 08:01:50;;;;;;;2.10;1.30;;;;;;;1.41;100.00;93131.34;5030127;28;20220;-73
2021/12/04 08:04:16;;;;;;;6.47;1.70;;;;;;;1.67;100.00;93134.59;5000305;28;20187;-72
2021/12/04 08:06:41;;;;;;;2.33;1.80;;;;;;;1.73;100.00;93140.91;5032882;28;20226;-72
2021/12/04 08:09:07;;;;;;;2.57;2.37;;;;;;;1.67;100.00;93131.91;5032934;28;20240;-71
2021/12/04 08:11:33;;;;;;;3.30;3.00;;;;;;;1.72;100.00;93139.41;5032239;28;20632;-71
2021/12/04 08:13:59;;;;;;;3.13;1.80;;;;;;;1.71;100.00;93140.59;4996175;28;20198;-71
2021/12/04 08:16:25;;;;;;;2.37;2.17;;;;;;;1.77;100.00;93134.19;5017851;28;20194;-71
2021/12/04 08:18:52;;;;;;;3.73;2.83;;;;;;;1.75;100.00;93119.69;5012404;28;20190;-71
2021/12/04 08:21:18;;;;;;;22.60;12.57;;;;;;;1.86;100.00;93141.53;5027040;28;20192;-70
2021/12/04 08:23:44;;;;;;;27.03;14.83;;;;;;;1.97;100.00;93136.50;5007601;28;20266;-71
2021/12/04 08:26:09;;;;;;;19.57;10.77;;;;;;;2.02;100.00;93138.63;5015564;28;20333;-71
2021/12/04 08:28:35;;;;;;;5.93;4.30;;;;;;;2.06;100.00;93123.81;5033401;28;20256;-70
2021/12/04 08:31:01;;;;;;;6.20;3.20;;;;;;;2.01;100.00;93121.72;5030226;28;20299;-72
2021/12/04 08:33:26;;;;;;;3.67;2.77;;;;;;;2.14;100.00;93121.56;5019642;28;20237;-70
2021/12/04 08:35:52;;;;;;;3.93;2.93;;;;;;;2.13;100.00;93128.16;5019503;28;20198;-70
2021/12/04 08:38:18;;;;;;;8.03;2.60;;;;;;;2.27;100.00;93119.50;5022515;28;20264;-70
2021/12/04 08:40:44;;;;;;;3.47;3.17;;;;;;;2.36;100.00;93122.19;5030986;28;20540;-72
2021/12/04 08:43:10;;;;;;;6.03;4.53;;;;;;;2.47;100.00;93125.97;5014525;28;20215;-71
2021/12/04 08:45:37;;;;;;;3.50;2.50;;;;;;;2.43;100.00;93125.34;5024561;28;20290;-71
2021/12/04 08:48:04;;;;;;;3.43;2.43;;;;;;;2.54;100.00;93129.53;5031586;28;20191;-71
2021/12/04 08:50:31;;;;;;;2.47;2.17;;;;;;;2.60;100.00;93133.16;5014334;28;20197;-70
2021/12/04 08:52:59;;;;;;;2.13;1.37;;;;;;;2.37;100.00;93115.63;5024367;28;20335;-70
2021/12/04 08:55:27;;;;;;;1.80;1.40;;;;;;;2.70;100.00;93111.13;5032681;28;20285;-70
2021/12/04 08:57:53;;;;;;;5.83;1.33;;;;;;;3.08;100.00;93110.63;5013017;28;20195;-71
2021/12/04 09:00:24;;;;;;;2.20;1.60;;;;;;;3.15;100.00;93118.41;5037622;28;20298;-71
2021/12/04 09:02:51;;;;;;;1.83;1.63;;;;;;;3.14;100.00;93108.84;5013742;28;20215;-70
2021/12/04 09:05:18;;;;;;;4.53;1.40;;;;;;;3.36;100.00;93109.38;5035513;28;20191;-71
2021/12/04 09:07:44;;;;;;;1.60;1.50;;;;;;;3.32;100.00;93112.22;5025876;28;20187;-72
2021/12/04 09:10:10;;;;;;;2.13;1.30;;;;;;;3.67;100.00;93109.84;5033834;28;20587;-70
2021/12/04 09:12:38;;;;;;;1.50;0.90;;;;;;;3.46;100.00;93108.88;5029302;28;20234;-70
2021/12/04 09:15:06;;;;;;;1.20;1.00;;;;;;;3.45;100.00;93107.38;5048338;28;20199;-71
2021/12/04 09:17:31;;;;;;;1.30;1.20;;;;;;;3.07;100.00;93106.44;5048558;28;20191;-70
2021/12/04 09:19:57;;;;;;;2.70;1.27;;;;;;;2.78;100.00;93104.25;5049875;28;20191;-71
2021/12/04 09:22:28;;;;;;;1.23;1.10;;;;;;;2.78;100.00;93106.19;5036202;28;20281;-72
2021/12/04 09:24:57;;;;;;;1.50;1.20;;;;;;;2.88;100.00;93104.97;5024634;28;20198;-71
2021/12/04 10:21:08;;;;;;;2.97;1.10;;;;;;;3.33;100.00;93054.38;5029640;28;20245;-71
2021/12/04 10:34:30;;;;;;;2.03;1.10;;;;;;;3.55;100.00;93035.22;5029764;28;20297;-71
2021/12/04 10:37:07;;;;;;;1.90;1.27;;;;;;;3.52;100.00;93031.50;5029864;28;20348;-71
2021/12/04 10:39:32;;;;;;;1.10;0.90;;;;;;;3.46;100.00;93027.19;5029965;28;20760;-71
2021/12/04 10:42:00;;;;;;;1.37;1.17;;;;;;;3.48;100.00;93030.91;5018082;28;20216;-71
2021/12/04 10:44:26;;;;;;;1.20;1.10;;;;;;;3.44;100.00;93022.25;5012129;28;20198;-71
2021/12/04 10:46:59;;;;;;;2.17;1.40;;;;;;;3.53;100.00;93022.19;5029084;28;20203;-74
2021/12/04 10:50:04;;;;;;;0.87;0.80;;;;;;;3.49;100.00;93021.63;5008833;28;20278;-72
2021/12/04 10:55:13;;;;;;;1.70;1.50;;;;;;;3.61;100.00;92998.34;5021526;28;20197;-72
2021/12/04 11:02:51;;;;;;;1.73;1.40;;;;;;;3.96;100.00;92988.50;5031489;28;20203;-71
2021/12/04 11:27:44;;;;;;;2.10;1.40;;;;;;;4.56;100.00;92964.56;5033455;28;20546;-72
2021/12/04 11:38:27;;;;;;;3.03;1.30;;;;;;;5.03;100.00;92933.84;5021753;28;20192;-75
2021/12/04 11:46:45;;;;;;;1.87;1.20;;;;;;;5.18;100.00;92941.94;4986332;28;20201;-72
2021/12/04 11:49:20;;;;;;;4.70;1.20;;;;;;;5.47;100.00;92936.44;4992085;28;20193;-72
2021/12/04 11:52:11;;;;;;;0.70;0.70;;;;;;;5.17;100.00;92929.63;4996378;28;20230;-72
2021/12/04 11:54:48;;;;;;;1.57;1.03;;;;;;;4.60;100.00;92934.63;5015613;28;20191;-71
2021/12/04 11:57:17;;;;;;;1.43;1.07;;;;;;;4.38;100.00;92942.38;5040490;28;20242;-72
2021/12/04 11:59:45;;;;;;;1.93;1.17;;;;;;;4.32;100.00;92928.03;5029326;28;20218;-71
2021/12/04 12:02:21;;;;;;;1.10;1.00;;;;;;;4.41;100.00;92944.88;5040681;28;20222;-72
2021/12/04 12:04:51;;;;;;;1.53;1.07;;;;;;;4.60;100.00;92942.75;5043403;28;20196;-71
2021/12/04 12:07:19;;;;;;;1.40;1.30;;;;;;;4.79;100.00;92928.56;5040541;28;20190;-72
2021/12/04 12:09:47;;;;;;;1.70;1.50;;;;;;;5.10;100.00;92919.94;5012915;28;20196;-71
2021/12/04 12:12:15;;;;;;;2.17;1.63;;;;;;;5.21;100.00;92916.66;5029543;28;20223;-72
2021/12/04 12:14:50;;;;;;;2.23;1.33;;;;;;;5.41;100.00;92917.44;5018114;28;20313;-73
2021/12/04 12:17:37;;;;;;;0.93;0.93;;;;;;;5.49;100.00;92902.28;5031148;28;20221;-72
2021/12/04 12:20:12;;;;;;;2.27;1.30;;;;;;;5.45;100.00;92909.84;5032236;28;20198;-71
2021/12/04 12:25:50;;;;;;;2.37;2.00;;;;;;;5.36;100.00;92895.72;5032269;28;20201;-72
2021/12/04 12:34:09;;;;;;;1.93;1.20;;;;;;;5.26;100.00;92891.66;5013271;28;20176;-72
2021/12/04 12:36:35;;;;;;;1.87;1.40;;;;;;;5.43;100.00;92884.50;4996203;28;20198;-72
2021/12/04 12:39:15;;;;;;;1.80;1.47;;;;;;;5.43;100.00;92889.91;5004156;28;20238;-73
2021/12/04 12:41:46;;;;;;;1.07;1.00;;;;;;;5.54;100.00;92881.91;5015201;28;20310;-72
2021/12/04 12:44:14;;;;;;;7.17;4.43;;;;;;;5.65;100.00;92882.06;5032916;28;20213;-72
2021/12/04 12:46:48;;;;;;;2.50;1.57;;;;;;;5.82;100.00;92875.63;5027344;28;20194;-72
2021/12/04 12:49:22;;;;;;;2.73;2.30;;;;;;;5.61;100.00;92881.50;5044002;28;20604;-74
2021/12/04 12:51:56;;;;;;;1.57;1.23;;;;;;;5.53;100.00;92873.03;5014889;28;20222;-72
2021/12/04 12:54:30;;;;;;;4.43;2.43;;;;;;;5.43;100.00;92862.84;5015086;28;20603;-73
2021/12/04 12:56:59;;;;;;;1.90;1.70;;;;;;;5.37;100.00;92880.94;5032710;28;20179;-72
2021/12/04 13:14:34;;;;;;;0.37;0.37;;;;;;;6.13;100.00;92874.25;5018591;28;20187;-72
2021/12/04 13:17:11;;;;;;;0.67;0.67;;;;;;;6.14;100.00;92879.91;5013262;28;20202;-73
2021/12/04 13:19:40;;;;;;;0.90;0.50;;;;;;;6.37;100.00;92874.69;5004205;28;20660;-72
2021/12/04 13:22:13;;;;;;;2.43;0.40;;;;;;;6.53;100.00;92874.88;5012327;28;20298;-73
2021/12/04 13:24:42;;;;;;;0.30;0.30;;;;;;;6.59;100.00;92861.34;5031355;28;20650;-73
2021/12/04 13:29:57;;;;;;;1.17;0.30;;;;;;;6.68;100.00;92863.88;5012099;28;20291;-72
2021/12/04 13:32:42;;;;;;;1.90;0.60;;;;;;;6.56;100.00;92854.94;5011708;28;20230;-72
2021/12/04 13:35:20;;;;;;;0.40;0.40;;;;;;;6.56;100.00;92857.63;5030449;28;20270;-71
2021/12/04 13:37:48;;;;;;;0.40;0.40;;;;;;;6.59;100.00;92862.09;5021543;28;20203;-71
2021/12/04 13:40:16;;;;;;;0.40;0.40;;;;;;;6.64;100.00;92860.63;5025338;28;20188;-71
2021/12/04 13:42:43;;;;;;;0.60;0.40;;;;;;;6.58;100.00;92844.34;5010594;28;20275;-71
2021/12/04 13:45:12;;;;;;;0.30;0.30;;;;;;;6.57;100.00;92844.81;5018477;28;20197;-71
2021/12/04 13:47:38;;;;;;;0.53;0.50;;;;;;;6.64;100.00;92844.38;5008302;28;20283;-72
2021/12/04 13:53:04;;;;;;;0.30;0.30;;;;;;;6.50;100.00;92848.69;5014972;28;20274;-71
2021/12/04 13:55:31;;;;;;;0.40;0.40;;;;;;;6.51;100.00;92849.44;4995943;28;20219;-72
2021/12/04 13:57:57;;;;;;;0.30;0.30;;;;;;;6.57;100.00;92852.94;5012555;28;20230;-72
2021/12/04 14:00:24;;;;;;;0.20;0.20;;;;;;;6.57;100.00;92859.09;5013201;28;20221;-72
2021/12/04 14:02:50;;;;;;;1.93;0.50;;;;;;;6.50;100.00;92864.97;5027588;28;20211;-71
2021/12/04 14:05:22;;;;;;;0.67;0.40;;;;;;;6.42;100.00;92861.22;5023078;28;20457;-72
2021/12/04 14:07:59;;;;;;;1.23;0.60;;;;;;;6.40;100.00;92863.66;5023101;28;20261;-72
2021/12/04 14:10:30;;;;;;;0.30;0.30;;;;;;;6.48;100.00;92861.97;5012138;28;20191;-74
2021/12/04 14:12:57;;;;;;;0.30;0.30;;;;;;;6.53;100.00;92868.69;5030358;28;20226;-73
2021/12/04 14:15:26;;;;;;;0.30;0.30;;;;;;;6.47;100.00;92879.47;5030822;28;20223;-73
2021/12/04 14:18:09;;;;;;;0.37;0.33;;;;;;;6.39;100.00;92885.81;5029196;28;20195;-73
2021/12/04 14:20:39;;;;;;;0.43;0.43;;;;;;;6.30;100.00;92880.53;4993751;28;20199;-73
2021/12/04 14:23:05;;;;;;;0.50;0.50;;;;;;;6.29;100.00;92887.94;5020083;28;20207;-73
2021/12/04 14:25:31;;;;;;;0.20;0.20;;;;;;;6.34;100.00;92876.41;5032911;28;20237;-72
2021/12/04 14:27:59;;;;;;;0.30;0.30;;;;;;;6.26;100.00;92883.50;5008631;28;20206;-72
2021/12/04 14:30:33;;;;;;;1.37;1.10;;;;;;;6.16;100.00;92876.00;5019585;28;20195;-74
2021/12/04 14:33:02;;;;;;;1.00;0.90;;;;;;;6.15;100.00;92867.13;4988990;28;20218;-73
2021/12/04 14:35:37;;;;;;;0.40;0.40;;;;;;;6.10;100.00;92879.38;5014676;28;20521;-73
2021/12/04 14:38:07;;;;;;;1.73;0.70;;;;;;;6.06;100.00;92878.09;5011468;28;20187;-73
2021/12/04 14:40:43;;;;;;;0.70;0.70;;;;;;;5.97;100.00;92881.69;5018674;28;20195;-73
2021/12/04 14:43:11;;;;;;;1.10;0.70;;;;;;;5.91;100.00;92888.28;5015687;28;20570;-72
2021/12/04 14:45:41;;;;;;;1.03;0.67;;;;;;;5.87;100.00;92876.94;5010149;28;20187;-72
2021/12/04 14:48:10;;;;;;;1.07;0.97;;;;;;;5.84;100.00;92896.81;5029124;28;20221;-72
2021/12/04 14:50:42;;;;;;;6.97;0.97;;;;;;;5.73;100.00;92877.72;5016374;28;20602;-72
2021/12/04 14:53:12;;;;;;;1.90;1.10;;;;;;;5.69;100.00;92872.50;5021322;28;20740;-72
2021/12/04 14:55:40;;;;;;;2.80;1.10;;;;;;;5.69;100.00;92872.50;5016896;28;20750;-72